Aviation Digital Data Service (ADDS)

Output produced by METARs form (1311 UTC 23 January 2019)
found at http://www.aviationweather.gov/metar/data/
 
METAR text: LFRL 231300Z AUTO 34016KT 320V020 9999 BKN036 BKN044 BKN210 09/02 Q1006 TEMPO 34015G25KT SHRA BKN025TCU
Conditions at: LFRL (LANVEOC/POULMIC(, FR) observed 1300 UTC 23 January 2019
Temperature: 9.0°C (48°F)
Dewpoint: 2.0°C (36°F) [RH = 61%]
Pressure (altimeter): 29.70 inches Hg (1006.0 mb)
Winds: from the NNW (340 degrees) at 18 MPH (16 knots; 8.2 m/s)
Visibility: 6 or more miles (10+ km)
Ceiling: 3600 feet AGL
Clouds: broken clouds at 3600 feet AGL
broken clouds at 4400 feet AGL
broken clouds at 21000 feet AGL
Weather: no significant weather observed at this time

METAR text: LFRL 231230Z AUTO 35015KT 330V030 9999 BKN033 BKN041 BKN050 09/02 Q1006 TEMPO 34015G25KT SHRA BKN025TCU
Conditions at: LFRL (LANVEOC/POULMIC(, FR) observed 1230 UTC 23 January 2019
Temperature: 9.0°C (48°F)
Dewpoint: 2.0°C (36°F) [RH = 61%]
Pressure (altimeter): 29.70 inches Hg (1006.0 mb)
Winds: from the N (350 degrees) at 17 MPH (15 knots; 7.7 m/s)
Visibility: 6 or more miles (10+ km)
Ceiling: 3300 feet AGL
Clouds: broken clouds at 3300 feet AGL
broken clouds at 4100 feet AGL
broken clouds at 5000 feet AGL
Weather: no significant weather observed at this time

METAR text: LFRL 231200Z AUTO 35015KT 320V040 9999 SCT032 BKN039 BKN048 09/03 Q1006 TEMPO 34015G25KT SHRA BKN025TCU
Conditions at: LFRL (LANVEOC/POULMIC(, FR) observed 1200 UTC 23 January 2019
Temperature: 9.0°C (48°F)
Dewpoint: 3.0°C (37°F) [RH = 66%]
Pressure (altimeter): 29.70 inches Hg (1006.0 mb)
Winds: from the N (350 degrees) at 17 MPH (15 knots; 7.7 m/s)
Visibility: 6 or more miles (10+ km)
Ceiling: 3900 feet AGL
Clouds: scattered clouds at 3200 feet AGL
broken clouds at 3900 feet AGL
broken clouds at 4800 feet AGL
Weather: no significant weather observed at this time

METAR text: LFRL 231130Z AUTO 34015KT 320V030 9999 SCT036 BKN042 BKN050 08/02 Q1006 TEMPO 34015G25KT SHRA BKN025TCU
Conditions at: LFRL (LANVEOC/POULMIC(, FR) observed 1130 UTC 23 January 2019
Temperature: 8.0°C (46°F)
Dewpoint: 2.0°C (36°F) [RH = 66%]
Pressure (altimeter): 29.70 inches Hg (1006.0 mb)
Winds: from the NNW (340 degrees) at 17 MPH (15 knots; 7.7 m/s)
Visibility: 6 or more miles (10+ km)
Ceiling: 4200 feet AGL
Clouds: scattered clouds at 3600 feet AGL
broken clouds at 4200 feet AGL
broken clouds at 5000 feet AGL
Weather: no significant weather observed at this time

METAR text: LFRL 231100Z AUTO 34013KT 300V360 9999 -RA FEW030 BKN038 BKN050 08/04 Q1006 TEMPO SHRA BKN020TCU
Conditions at: LFRL (LANVEOC/POULMIC(, FR) observed 1100 UTC 23 January 2019
Temperature: 8.0°C (46°F)
Dewpoint: 4.0°C (39°F) [RH = 76%]
Pressure (altimeter): 29.70 inches Hg (1006.0 mb)
Winds: from the NNW (340 degrees) at 15 MPH (13 knots; 6.7 m/s)
Visibility: 6 or more miles (10+ km)
Ceiling: 3800 feet AGL
Clouds: few clouds at 3000 feet AGL
broken clouds at 3800 feet AGL
broken clouds at 5000 feet AGL
Weather: -RA  (light rain)

METAR text: LFRL 231030Z AUTO 34013KT CAVOK 08/02 Q1005 TEMPO SHRA BKN020TCU
Conditions at: LFRL (LANVEOC/POULMIC(, FR) observed 1030 UTC 23 January 2019
Temperature: 8.0°C (46°F)
Dewpoint: 2.0°C (36°F) [RH = 66%]
Pressure (altimeter): 29.68 inches Hg (1005.0 mb)
Winds: from the NNW (340 degrees) at 15 MPH (13 knots; 6.7 m/s)
Visibility: 6 or more miles (10+ km)
Ceiling: ceiling and visibility are OK
Clouds: unknown
Weather: no significant weather observed at this time

METAR text: LFRL 231000Z AUTO 33012KT 9999 FEW034 OVC220 07/03 Q1005 TEMPO SHRA BKN020TCU
Conditions at: LFRL (LANVEOC/POULMIC(, FR) observed 1000 UTC 23 January 2019
Temperature: 7.0°C (45°F)
Dewpoint: 3.0°C (37°F) [RH = 76%]
Pressure (altimeter): 29.68 inches Hg (1005.0 mb)
Winds: from the NNW (330 degrees) at 14 MPH (12 knots; 6.2 m/s)
Visibility: 6 or more miles (10+ km)
Ceiling: 22000 feet AGL
Clouds: few clouds at 3400 feet AGL
overcast cloud deck at 22000 feet AGL
Weather: no significant weather observed at this time

METAR text: LFRL 230930Z AUTO 34014KT 320V020 CAVOK 07/03 Q1005 TEMPO SHRA BKN020TCU
Conditions at: LFRL (LANVEOC/POULMIC(, FR) observed 0930 UTC 23 January 2019
Temperature: 7.0°C (45°F)
Dewpoint: 3.0°C (37°F) [RH = 76%]
Pressure (altimeter): 29.68 inches Hg (1005.0 mb)
Winds: from the NNW (340 degrees) at 16 MPH (14 knots; 7.2 m/s)
Visibility: 6 or more miles (10+ km)
Ceiling: ceiling and visibility are OK
Clouds: unknown
Weather: no significant weather observed at this time

METAR text: LFRL 230900Z AUTO 34013KT 9999 FEW021/// SCT062/// BKN220/// ///TCU 06/03 Q1005 TEMPO SHRA
Conditions at: LFRL (LANVEOC/POULMIC(, FR) observed 0900 UTC 23 January 2019
Temperature: 6.0°C (43°F)
Dewpoint: 3.0°C (37°F) [RH = 81%]
Pressure (altimeter): 29.68 inches Hg (1005.0 mb)
Winds: from the NNW (340 degrees) at 15 MPH (13 knots; 6.7 m/s)
Visibility: 6 or more miles (10+ km)
Ceiling: 22000 feet AGL
Clouds: few clouds at 2100 feet AGL
scattered clouds at 6200 feet AGL
broken clouds at 22000 feet AGL
Weather: no significant weather observed at this time

METAR text: LFRL 230830Z AUTO 35011KT 330V030 9999 FEW018 BKN076 BKN190 06/03 Q1004 TEMPO SHRA BKN020TCU
Conditions at: LFRL (LANVEOC/POULMIC(, FR) observed 0830 UTC 23 January 2019
Temperature: 6.0°C (43°F)
Dewpoint: 3.0°C (37°F) [RH = 81%]
Pressure (altimeter): 29.65 inches Hg (1004.0 mb)
Winds: from the N (350 degrees) at 13 MPH (11 knots; 5.7 m/s)
Visibility: 6 or more miles (10+ km)
Ceiling: 7600 feet AGL
Clouds: few clouds at 1800 feet AGL
broken clouds at 7600 feet AGL
broken clouds at 19000 feet AGL
Weather: no significant weather observed at this time

METAR text: LFRL 230800Z AUTO 35011KT 330V030 9999 FEW019/// BKN030/// BKN042/// ///TCU 06/04 Q1004 TEMPO SHRA
Conditions at: LFRL (LANVEOC/POULMIC(, FR) observed 0800 UTC 23 January 2019
Temperature: 6.0°C (43°F)
Dewpoint: 4.0°C (39°F) [RH = 87%]
Pressure (altimeter): 29.65 inches Hg (1004.0 mb)
Winds: from the N (350 degrees) at 13 MPH (11 knots; 5.7 m/s)
Visibility: 6 or more miles (10+ km)
Ceiling: 3000 feet AGL
Clouds: few clouds at 1900 feet AGL
broken clouds at 3000 feet AGL
broken clouds at 4200 feet AGL
Weather: no significant weather observed at this time

METAR text: LFRL 230730Z AUTO 34010KT 320V020 9999 FEW028/// SCT034/// BKN056/// ///CB 06/03 Q1003 TEMPO SHRA
Conditions at: LFRL (LANVEOC/POULMIC(, FR) observed 0730 UTC 23 January 2019
Temperature: 6.0°C (43°F)
Dewpoint: 3.0°C (37°F) [RH = 81%]
Pressure (altimeter): 29.62 inches Hg (1003.0 mb)
Winds: from the NNW (340 degrees) at 12 MPH (10 knots; 5.1 m/s)
Visibility: 6 or more miles (10+ km)
Ceiling: 5600 feet AGL
Clouds: few clouds at 2800 feet AGL
scattered clouds at 3400 feet AGL
broken clouds at 5600 feet AGL
Weather: no significant weather observed at this time

METAR text: LFRL 230700Z AUTO 36014KT 7000 -RA FEW012/// BKN017/// BKN027/// ///TCU 05/04 Q1003 TEMPO SHRA
Conditions at: LFRL (LANVEOC/POULMIC(, FR) observed 0700 UTC 23 January 2019
Temperature: 5.0°C (41°F)
Dewpoint: 4.0°C (39°F) [RH = 93%]
Pressure (altimeter): 29.62 inches Hg (1003.0 mb)
Winds: from the N (360 degrees) at 16 MPH (14 knots; 7.2 m/s)
Visibility: 4 miles ( 7 km)
Ceiling: 1700 feet AGL
Clouds: few clouds at 1200 feet AGL
broken clouds at 1700 feet AGL
broken clouds at 2700 feet AGL
Weather: -RA  (light rain)

METAR text: LFRL 230630Z AUTO 36009KT 330V040 9999 FEW020/// SCT032/// BKN045/// ///TCU 05/03 Q1003 TEMPO SHRA
Conditions at: LFRL (LANVEOC/POULMIC(, FR) observed 0630 UTC 23 January 2019
Temperature: 5.0°C (41°F)
Dewpoint: 3.0°C (37°F) [RH = 87%]
Pressure (altimeter): 29.62 inches Hg (1003.0 mb)
Winds: from the N (360 degrees) at 10 MPH (9 knots; 4.6 m/s)
Visibility: 6 or more miles (10+ km)
Ceiling: 4500 feet AGL
Clouds: few clouds at 2000 feet AGL
scattered clouds at 3200 feet AGL
broken clouds at 4500 feet AGL
Weather: no significant weather observed at this time

METAR text: LFRL 230600Z AUTO 36014G27KT 340V040 9999 -RA FEW012/// SCT024/// BKN032/// ///TCU 06/03 Q1003 TEMPO SHRA
Conditions at: LFRL (LANVEOC/POULMIC(, FR) observed 0600 UTC 23 January 2019
Temperature: 6.0°C (43°F)
Dewpoint: 3.0°C (37°F) [RH = 81%]
Pressure (altimeter): 29.62 inches Hg (1003.0 mb)
Winds: from the N (360 degrees) at 16 MPH (14 knots; 7.2 m/s)
gusting to 31 MPH (27 knots; 13.9 m/s)
Visibility: 6 or more miles (10+ km)
Ceiling: 3200 feet AGL
Clouds: few clouds at 1200 feet AGL
scattered clouds at 2400 feet AGL
broken clouds at 3200 feet AGL
Weather: -RA  (light rain)

METAR text: LFRL 230530Z AUTO 33010KT 310V030 9999 SCT031/// BKN044/// BKN054/// ///TCU 06/03 Q1002 TEMPO SHRA
Conditions at: LFRL (LANVEOC/POULMIC(, FR) observed 0530 UTC 23 January 2019
Temperature: 6.0°C (43°F)
Dewpoint: 3.0°C (37°F) [RH = 81%]
Pressure (altimeter): 29.59 inches Hg (1002.0 mb)
Winds: from the NNW (330 degrees) at 12 MPH (10 knots; 5.1 m/s)
Visibility: 6 or more miles (10+ km)
Ceiling: 4400 feet AGL
Clouds: scattered clouds at 3100 feet AGL
broken clouds at 4400 feet AGL
broken clouds at 5400 feet AGL
Weather: no significant weather observed at this time

METAR text: LFRL 230500Z AUTO 35013KT 330V030 9999 FEW011/// SCT030/// BKN040/// ///TCU 06/03 Q1002
Conditions at: LFRL (LANVEOC/POULMIC(, FR) observed 0500 UTC 23 January 2019
Temperature: 6.0°C (43°F)
Dewpoint: 3.0°C (37°F) [RH = 81%]
Pressure (altimeter): 29.59 inches Hg (1002.0 mb)
Winds: from the N (350 degrees) at 15 MPH (13 knots; 6.7 m/s)
Visibility: 6 or more miles (10+ km)
Ceiling: 4000 feet AGL
Clouds: few clouds at 1100 feet AGL
scattered clouds at 3000 feet AGL
broken clouds at 4000 feet AGL
Weather: no significant weather observed at this time

METAR text: LFRL 230430Z AUTO 33019G32KT 300V010 9999 3300 -RA FEW012/// SCT030/// BKN080/// ///TCU 07/02 Q1002
Conditions at: LFRL (LANVEOC/POULMIC(, FR) observed 0430 UTC 23 January 2019
Temperature: 7.0°C (45°F)
Dewpoint: 2.0°C (36°F) [RH = 70%]
Pressure (altimeter): 29.59 inches Hg (1002.0 mb)
Winds: from the NNW (330 degrees) at 22 MPH (19 knots; 9.8 m/s)
gusting to 37 MPH (32 knots; 16.5 m/s)
Visibility: 6 or more miles (10+ km)
Ceiling: 8000 feet AGL
Clouds: few clouds at 1200 feet AGL
scattered clouds at 3000 feet AGL
broken clouds at 8000 feet AGL
Weather: -RA  (light rain)

METAR text: LFRL 230400Z AUTO 33016KT 9999 FEW032/// BKN190/// OVC210/// ///TCU 08/03 Q1001
Conditions at: LFRL (LANVEOC/POULMIC(, FR) observed 0400 UTC 23 January 2019
Temperature: 8.0°C (46°F)
Dewpoint: 3.0°C (37°F) [RH = 71%]
Pressure (altimeter): 29.56 inches Hg (1001.0 mb)
Winds: from the NNW (330 degrees) at 18 MPH (16 knots; 8.2 m/s)
Visibility: 6 or more miles (10+ km)
Ceiling: 19000 feet AGL
Clouds: few clouds at 3200 feet AGL
broken clouds at 19000 feet AGL
overcast cloud deck at 21000 feet AGL
Weather: no significant weather observed at this time

METAR text: LFRL 230330Z AUTO 32016G28KT 9999 FEW030 BKN058 BKN190 08/03 Q1001
Conditions at: LFRL (LANVEOC/POULMIC(, FR) observed 0330 UTC 23 January 2019
Temperature: 8.0°C (46°F)
Dewpoint: 3.0°C (37°F) [RH = 71%]
Pressure (altimeter): 29.56 inches Hg (1001.0 mb)
Winds: from the NW (320 degrees) at 18 MPH (16 knots; 8.2 m/s)
gusting to 32 MPH (28 knots; 14.4 m/s)
Visibility: 6 or more miles (10+ km)
Ceiling: 5800 feet AGL
Clouds: few clouds at 3000 feet AGL
broken clouds at 5800 feet AGL
broken clouds at 19000 feet AGL
Weather: no significant weather observed at this time

METAR text: LFRL 230300Z AUTO 32013KT 9999 FEW036 BKN066 OVC210 08/04 Q1001
Conditions at: LFRL (LANVEOC/POULMIC(, FR) observed 0300 UTC 23 January 2019
Temperature: 8.0°C (46°F)
Dewpoint: 4.0°C (39°F) [RH = 76%]
Pressure (altimeter): 29.56 inches Hg (1001.0 mb)
Winds: from the NW (320 degrees) at 15 MPH (13 knots; 6.7 m/s)
Visibility: 6 or more miles (10+ km)
Ceiling: 6600 feet AGL
Clouds: few clouds at 3600 feet AGL
broken clouds at 6600 feet AGL
overcast cloud deck at 21000 feet AGL
Weather: no significant weather observed at this time

METAR text: LFRL 230230Z AUTO 31012KT 9999 FEW027 OVC210 07/04 Q1001
Conditions at: LFRL (LANVEOC/POULMIC(, FR) observed 0230 UTC 23 January 2019
Temperature: 7.0°C (45°F)
Dewpoint: 4.0°C (39°F) [RH = 81%]
Pressure (altimeter): 29.56 inches Hg (1001.0 mb)
Winds: from the NW (310 degrees) at 14 MPH (12 knots; 6.2 m/s)
Visibility: 6 or more miles (10+ km)
Ceiling: 21000 feet AGL
Clouds: few clouds at 2700 feet AGL
overcast cloud deck at 21000 feet AGL
Weather: no significant weather observed at this time

METAR text: LFRL 230200Z AUTO 32011KT CAVOK 07/04 Q1000
Conditions at: LFRL (LANVEOC/POULMIC(, FR) observed 0200 UTC 23 January 2019
Temperature: 7.0°C (45°F)
Dewpoint: 4.0°C (39°F) [RH = 81%]
Pressure (altimeter): 29.53 inches Hg (1000.0 mb)
Winds: from the NW (320 degrees) at 13 MPH (11 knots; 5.7 m/s)
Visibility: 6 or more miles (10+ km)
Ceiling: ceiling and visibility are OK
Clouds: unknown
Weather: no significant weather observed at this time

METAR text: LFRL 230130Z AUTO 30010KT CAVOK 07/05 Q1001
Conditions at: LFRL (LANVEOC/POULMIC(, FR) observed 0130 UTC 23 January 2019
Temperature: 7.0°C (45°F)
Dewpoint: 5.0°C (41°F) [RH = 87%]
Pressure (altimeter): 29.56 inches Hg (1001.0 mb)
Winds: from the WNW (300 degrees) at 12 MPH (10 knots; 5.1 m/s)
Visibility: 6 or more miles (10+ km)
Ceiling: ceiling and visibility are OK
Clouds: unknown
Weather: no significant weather observed at this time

METAR text: LFRL 230100Z AUTO 31008KT CAVOK 07/05 Q1001
Conditions at: LFRL (LANVEOC/POULMIC(, FR) observed 0100 UTC 23 January 2019
Temperature: 7.0°C (45°F)
Dewpoint: 5.0°C (41°F) [RH = 87%]
Pressure (altimeter): 29.56 inches Hg (1001.0 mb)
Winds: from the NW (310 degrees) at 9 MPH (8 knots; 4.1 m/s)
Visibility: 6 or more miles (10+ km)
Ceiling: ceiling and visibility are OK
Clouds: unknown
Weather: no significant weather observed at this time

METAR text: LFRL 230030Z AUTO 29006KT CAVOK 07/05 Q1001
Conditions at: LFRL (LANVEOC/POULMIC(, FR) observed 0030 UTC 23 January 2019
Temperature: 7.0°C (45°F)
Dewpoint: 5.0°C (41°F) [RH = 87%]
Pressure (altimeter): 29.56 inches Hg (1001.0 mb)
Winds: from the WNW (290 degrees) at 7 MPH (6 knots; 3.1 m/s)
Visibility: 6 or more miles (10+ km)
Ceiling: ceiling and visibility are OK
Clouds: unknown
Weather: no significant weather observed at this time

METAR text: LFRL 230000Z AUTO 28008KT 9999 FEW016 SCT029 OVC090 07/05 Q1001
Conditions at: LFRL (LANVEOC/POULMIC(, FR) observed 0000 UTC 23 January 2019
Temperature: 7.0°C (45°F)
Dewpoint: 5.0°C (41°F) [RH = 87%]
Pressure (altimeter): 29.56 inches Hg (1001.0 mb)
Winds: from the W (280 degrees) at 9 MPH (8 knots; 4.1 m/s)
Visibility: 6 or more miles (10+ km)
Ceiling: 9000 feet AGL
Clouds: few clouds at 1600 feet AGL
scattered clouds at 2900 feet AGL
overcast cloud deck at 9000 feet AGL
Weather: no significant weather observed at this time

METAR text: LFRL 222330Z AUTO 29005KT 9999 FEW024 BKN035 BKN043 07/05 Q1001
Conditions at: LFRL (LANVEOC/POULMIC(, FR) observed 2330 UTC 22 January 2019
Temperature: 7.0°C (45°F)
Dewpoint: 5.0°C (41°F) [RH = 87%]
Pressure (altimeter): 29.56 inches Hg (1001.0 mb)
Winds: from the WNW (290 degrees) at 6 MPH (5 knots; 2.6 m/s)
Visibility: 6 or more miles (10+ km)
Ceiling: 3500 feet AGL
Clouds: few clouds at 2400 feet AGL
broken clouds at 3500 feet AGL
broken clouds at 4300 feet AGL
Weather: no significant weather observed at this time

METAR text: LFRL 222300Z AUTO 30007KT 9999 FEW028 BKN043 OVC052 07/04 Q1001
Conditions at: LFRL (LANVEOC/POULMIC(, FR) observed 2300 UTC 22 January 2019
Temperature: 7.0°C (45°F)
Dewpoint: 4.0°C (39°F) [RH = 81%]
Pressure (altimeter): 29.56 inches Hg (1001.0 mb)
Winds: from the WNW (300 degrees) at 8 MPH (7 knots; 3.6 m/s)
Visibility: 6 or more miles (10+ km)
Ceiling: 4300 feet AGL
Clouds: few clouds at 2800 feet AGL
broken clouds at 4300 feet AGL
overcast cloud deck at 5200 feet AGL
Weather: no significant weather observed at this time

METAR text: LFRL 222230Z AUTO 31009KT 9999 BKN031 OVC040 07/04 Q1001
Conditions at: LFRL (LANVEOC/POULMIC(, FR) observed 2230 UTC 22 January 2019
Temperature: 7.0°C (45°F)
Dewpoint: 4.0°C (39°F) [RH = 81%]
Pressure (altimeter): 29.56 inches Hg (1001.0 mb)
Winds: from the NW (310 degrees) at 10 MPH (9 knots; 4.6 m/s)
Visibility: 6 or more miles (10+ km)
Ceiling: 3100 feet AGL
Clouds: broken clouds at 3100 feet AGL
overcast cloud deck at 4000 feet AGL
Weather: no significant weather observed at this time

METAR text: LFRL 222200Z AUTO 31008KT 9999 BKN029/// OVC035/// ///TCU 07/04 Q1002
Conditions at: LFRL (LANVEOC/POULMIC(, FR) observed 2200 UTC 22 January 2019
Temperature: 7.0°C (45°F)
Dewpoint: 4.0°C (39°F) [RH = 81%]
Pressure (altimeter): 29.59 inches Hg (1002.0 mb)
Winds: from the NW (310 degrees) at 9 MPH (8 knots; 4.1 m/s)
Visibility: 6 or more miles (10+ km)
Ceiling: 2900 feet AGL
Clouds: broken clouds at 2900 feet AGL
overcast cloud deck at 3500 feet AGL
Weather: no significant weather observed at this time

METAR text: LFRL 222130Z AUTO 29010KT 9999 FEW025/// SCT032/// BKN040/// ///CB 07/05 Q1002
Conditions at: LFRL (LANVEOC/POULMIC(, FR) observed 2130 UTC 22 January 2019
Temperature: 7.0°C (45°F)
Dewpoint: 5.0°C (41°F) [RH = 87%]
Pressure (altimeter): 29.59 inches Hg (1002.0 mb)
Winds: from the WNW (290 degrees) at 12 MPH (10 knots; 5.1 m/s)
Visibility: 6 or more miles (10+ km)
Ceiling: 4000 feet AGL
Clouds: few clouds at 2500 feet AGL
scattered clouds at 3200 feet AGL
broken clouds at 4000 feet AGL
Weather: no significant weather observed at this time

METAR text: LFRL 222100Z AUTO 27009KT 9999 SCT030/// SCT056/// BKN066/// ///CB 07/05 Q1002
Conditions at: LFRL (LANVEOC/POULMIC(, FR) observed 2100 UTC 22 January 2019
Temperature: 7.0°C (45°F)
Dewpoint: 5.0°C (41°F) [RH = 87%]
Pressure (altimeter): 29.59 inches Hg (1002.0 mb)
Winds: from the W (270 degrees) at 10 MPH (9 knots; 4.6 m/s)
Visibility: 6 or more miles (10+ km)
Ceiling: 6600 feet AGL
Clouds: scattered clouds at 3000 feet AGL
scattered clouds at 5600 feet AGL
broken clouds at 6600 feet AGL
Weather: no significant weather observed at this time

METAR text: LFRL 222030Z AUTO 29008KT 9999 ///TCU 07/04 Q1003
Conditions at: LFRL (LANVEOC/POULMIC(, FR) observed 2030 UTC 22 January 2019
Temperature: 7.0°C (45°F)
Dewpoint: 4.0°C (39°F) [RH = 81%]
Pressure (altimeter): 29.62 inches Hg (1003.0 mb)
Winds: from the WNW (290 degrees) at 9 MPH (8 knots; 4.1 m/s)
Visibility: 6 or more miles (10+ km)
Ceiling: unknown
Clouds: missing
Weather: no significant weather observed at this time

METAR text: LFRL 222000Z AUTO 30005KT 9999 FEW015/// SCT035/// OVC094/// ///TCU 06/04 Q1003 BECMG BKN035
Conditions at: LFRL (LANVEOC/POULMIC(, FR) observed 2000 UTC 22 January 2019
Temperature: 6.0°C (43°F)
Dewpoint: 4.0°C (39°F) [RH = 87%]
Pressure (altimeter): 29.62 inches Hg (1003.0 mb)
Winds: from the WNW (300 degrees) at 6 MPH (5 knots; 2.6 m/s)
Visibility: 6 or more miles (10+ km)
Ceiling: 9400 feet AGL
Clouds: few clouds at 1500 feet AGL
scattered clouds at 3500 feet AGL
overcast cloud deck at 9400 feet AGL
Weather: no significant weather observed at this time

METAR text: LFRL 221930Z AUTO 31013KT 9999 -RA FEW012 SCT031 BKN042 06/04 Q1004 NOSIG
Conditions at: LFRL (LANVEOC/POULMIC(, FR) observed 1930 UTC 22 January 2019
Temperature: 6.0°C (43°F)
Dewpoint: 4.0°C (39°F) [RH = 87%]
Pressure (altimeter): 29.65 inches Hg (1004.0 mb)
Winds: from the NW (310 degrees) at 15 MPH (13 knots; 6.7 m/s)
Visibility: 6 or more miles (10+ km)
Ceiling: 4200 feet AGL
Clouds: few clouds at 1200 feet AGL
scattered clouds at 3100 feet AGL
broken clouds at 4200 feet AGL
Weather: -RA  (light rain)

METAR text: LFRL 221900Z AUTO 29012KT 9999 FEW029/// BKN062/// OVC076/// ///TCU 07/03 Q1004 TEMPO 3000 SHRA BECMG BKN035
Conditions at: LFRL (LANVEOC/POULMIC(, FR) observed 1900 UTC 22 January 2019
Temperature: 7.0°C (45°F)
Dewpoint: 3.0°C (37°F) [RH = 76%]
Pressure (altimeter): 29.65 inches Hg (1004.0 mb)
Winds: from the WNW (290 degrees) at 14 MPH (12 knots; 6.2 m/s)
Visibility: 6 or more miles (10+ km)
Ceiling: 6200 feet AGL
Clouds: few clouds at 2900 feet AGL
broken clouds at 6200 feet AGL
overcast cloud deck at 7600 feet AGL
Weather: no significant weather observed at this time

METAR text: LFRL 221830Z AUTO 30009KT 9999 SCT026/// BKN032/// BKN045/// ///TCU 07/04 Q1004 TEMPO 3000 SHRA BECMG BKN035
Conditions at: LFRL (LANVEOC/POULMIC(, FR) observed 1830 UTC 22 January 2019
Temperature: 7.0°C (45°F)
Dewpoint: 4.0°C (39°F) [RH = 81%]
Pressure (altimeter): 29.65 inches Hg (1004.0 mb)
Winds: from the WNW (300 degrees) at 10 MPH (9 knots; 4.6 m/s)
Visibility: 6 or more miles (10+ km)
Ceiling: 3200 feet AGL
Clouds: scattered clouds at 2600 feet AGL
broken clouds at 3200 feet AGL
broken clouds at 4500 feet AGL
Weather: no significant weather observed at this time

METAR text: LFRL 221800Z AUTO 30010KT 9999 FEW028 SCT086 OVC100 07/03 Q1004 TEMPO 3000 SHRA SCT015TCU
Conditions at: LFRL (LANVEOC/POULMIC(, FR) observed 1800 UTC 22 January 2019
Temperature: 7.0°C (45°F)
Dewpoint: 3.0°C (37°F) [RH = 76%]
Pressure (altimeter): 29.65 inches Hg (1004.0 mb)
Winds: from the WNW (300 degrees) at 12 MPH (10 knots; 5.1 m/s)
Visibility: 6 or more miles (10+ km)
Ceiling: 10000 feet AGL
Clouds: few clouds at 2800 feet AGL
scattered clouds at 8600 feet AGL
overcast cloud deck at 10000 feet AGL
Weather: no significant weather observed at this time

METAR text: LFRL 221730Z AUTO 29011KT 9999 BKN029 BKN034 BKN100 07/04 Q1004 TEMPO 3000 SHRA SCT015TCU
Conditions at: LFRL (LANVEOC/POULMIC(, FR) observed 1730 UTC 22 January 2019
Temperature: 7.0°C (45°F)
Dewpoint: 4.0°C (39°F) [RH = 81%]
Pressure (altimeter): 29.65 inches Hg (1004.0 mb)
Winds: from the WNW (290 degrees) at 13 MPH (11 knots; 5.7 m/s)
Visibility: 6 or more miles (10+ km)
Ceiling: 2900 feet AGL
Clouds: broken clouds at 2900 feet AGL
broken clouds at 3400 feet AGL
broken clouds at 10000 feet AGL
Weather: no significant weather observed at this time

METAR text: LFRL 221700Z AUTO 29010KT 9999 BKN032 OVC110 07/04 Q1004 TEMPO 3000 SHRA SCT015TCU
Conditions at: LFRL (LANVEOC/POULMIC(, FR) observed 1700 UTC 22 January 2019
Temperature: 7.0°C (45°F)
Dewpoint: 4.0°C (39°F) [RH = 81%]
Pressure (altimeter): 29.65 inches Hg (1004.0 mb)
Winds: from the WNW (290 degrees) at 12 MPH (10 knots; 5.1 m/s)
Visibility: 6 or more miles (10+ km)
Ceiling: 3200 feet AGL
Clouds: broken clouds at 3200 feet AGL
overcast cloud deck at 11000 feet AGL
Weather: no significant weather observed at this time

METAR text: LFRL 221630Z AUTO 29011KT 9999 FEW033/// BKN047/// BKN076/// ///TCU 07/04 Q1005 TEMPO 3000 SHRA
Conditions at: LFRL (LANVEOC/POULMIC(, FR) observed 1630 UTC 22 January 2019
Temperature: 7.0°C (45°F)
Dewpoint: 4.0°C (39°F) [RH = 81%]
Pressure (altimeter): 29.68 inches Hg (1005.0 mb)
Winds: from the WNW (290 degrees) at 13 MPH (11 knots; 5.7 m/s)
Visibility: 6 or more miles (10+ km)
Ceiling: 4700 feet AGL
Clouds: few clouds at 3300 feet AGL
broken clouds at 4700 feet AGL
broken clouds at 7600 feet AGL
Weather: no significant weather observed at this time

METAR text: LFRL 221600Z AUTO 29013KT 9999 SCT024/// SCT034/// OVC110/// ///TCU 07/04 Q1005 TEMPO 3000 SHRA
Conditions at: LFRL (LANVEOC/POULMIC(, FR) observed 1600 UTC 22 January 2019
Temperature: 7.0°C (45°F)
Dewpoint: 4.0°C (39°F) [RH = 81%]
Pressure (altimeter): 29.68 inches Hg (1005.0 mb)
Winds: from the WNW (290 degrees) at 15 MPH (13 knots; 6.7 m/s)
Visibility: 6 or more miles (10+ km)
Ceiling: 11000 feet AGL
Clouds: scattered clouds at 2400 feet AGL
scattered clouds at 3400 feet AGL
overcast cloud deck at 11000 feet AGL
Weather: no significant weather observed at this time

METAR text: LFRL 221530Z AUTO 30013KT 9999 FEW021/// SCT035/// BKN049/// ///TCU 08/05 Q1005 TEMPO 3000 SHRA
Conditions at: LFRL (LANVEOC/POULMIC(, FR) observed 1530 UTC 22 January 2019
Temperature: 8.0°C (46°F)
Dewpoint: 5.0°C (41°F) [RH = 81%]
Pressure (altimeter): 29.68 inches Hg (1005.0 mb)
Winds: from the WNW (300 degrees) at 15 MPH (13 knots; 6.7 m/s)
Visibility: 6 or more miles (10+ km)
Ceiling: 4900 feet AGL
Clouds: few clouds at 2100 feet AGL
scattered clouds at 3500 feet AGL
broken clouds at 4900 feet AGL
Weather: no significant weather observed at this time

METAR text: LFRL 221500Z AUTO 30010KT 9999 FEW007/// SCT022/// BKN027/// ///CB 07/05 Q1005 TEMPO 3000 SHRA
Conditions at: LFRL (LANVEOC/POULMIC(, FR) observed 1500 UTC 22 January 2019
Temperature: 7.0°C (45°F)
Dewpoint: 5.0°C (41°F) [RH = 87%]
Pressure (altimeter): 29.68 inches Hg (1005.0 mb)
Winds: from the WNW (300 degrees) at 12 MPH (10 knots; 5.1 m/s)
Visibility: 6 or more miles (10+ km)
Ceiling: 2700 feet AGL
Clouds: few clouds at 700 feet AGL
scattered clouds at 2200 feet AGL
broken clouds at 2700 feet AGL
Weather: no significant weather observed at this time

METAR text: LFRL 221430Z AUTO 28015KT 6000 -RA FEW016/// BKN023/// BKN028/// ///CB 06/04 Q1005 TEMPO 30010G20KT 3000 SHRA
Conditions at: LFRL (LANVEOC/POULMIC(, FR) observed 1430 UTC 22 January 2019
Temperature: 6.0°C (43°F)
Dewpoint: 4.0°C (39°F) [RH = 87%]
Pressure (altimeter): 29.68 inches Hg (1005.0 mb)
Winds: from the W (280 degrees) at 17 MPH (15 knots; 7.7 m/s)
Visibility: 4 miles ( 6 km)
Ceiling: 2300 feet AGL
Clouds: few clouds at 1600 feet AGL
broken clouds at 2300 feet AGL
broken clouds at 2800 feet AGL
Weather: -RA  (light rain)

METAR text: LFRL 221400Z AUTO 28010KT 9999 FEW020/// SCT031/// BKN100/// ///CB 08/05 Q1006 TEMPO 3000 SHRA
Conditions at: LFRL (LANVEOC/POULMIC(, FR) observed 1400 UTC 22 January 2019
Temperature: 8.0°C (46°F)
Dewpoint: 5.0°C (41°F) [RH = 81%]
Pressure (altimeter): 29.70 inches Hg (1006.0 mb)
Winds: from the W (280 degrees) at 12 MPH (10 knots; 5.1 m/s)
Visibility: 6 or more miles (10+ km)
Ceiling: 10000 feet AGL
Clouds: few clouds at 2000 feet AGL
scattered clouds at 3100 feet AGL
broken clouds at 10000 feet AGL
Weather: no significant weather observed at this time

METAR text: LFRL 221330Z AUTO 29011KT 9999 FEW037/// OVC098/// ///CB 08/05 Q1006 TEMPO 3000 SHRA
Conditions at: LFRL (LANVEOC/POULMIC(, FR) observed 1330 UTC 22 January 2019
Temperature: 8.0°C (46°F)
Dewpoint: 5.0°C (41°F) [RH = 81%]
Pressure (altimeter): 29.70 inches Hg (1006.0 mb)
Winds: from the WNW (290 degrees) at 13 MPH (11 knots; 5.7 m/s)
Visibility: 6 or more miles (10+ km)
Ceiling: 9800 feet AGL
Clouds: few clouds at 3700 feet AGL
overcast cloud deck at 9800 feet AGL
Weather: no significant weather observed at this time

METAR text: LFRL 221300Z AUTO 29017KT 260V320 8000 -RA FEW018/// BKN027/// BKN041/// ///TCU 06/04 Q1007 TEMPO 30010G20KT 3000 SHRA
Conditions at: LFRL (LANVEOC/POULMIC(, FR) observed 1300 UTC 22 January 2019
Temperature: 6.0°C (43°F)
Dewpoint: 4.0°C (39°F) [RH = 87%]
Pressure (altimeter): 29.73 inches Hg (1007.0 mb)
Winds: from the WNW (290 degrees) at 20 MPH (17 knots; 8.7 m/s)
Visibility: 5 miles ( 8 km)
Ceiling: 2700 feet AGL
Clouds: few clouds at 1800 feet AGL
broken clouds at 2700 feet AGL
broken clouds at 4100 feet AGL
Weather: -RA  (light rain)

METAR text: LFRL 221230Z AUTO 28011KT 9999 FEW049/// SCT066/// BKN084/// ///CB 07/05 Q1007 TEMPO 3000 SHRA
Conditions at: LFRL (LANVEOC/POULMIC(, FR) observed 1230 UTC 22 January 2019
Temperature: 7.0°C (45°F)
Dewpoint: 5.0°C (41°F) [RH = 87%]
Pressure (altimeter): 29.73 inches Hg (1007.0 mb)
Winds: from the W (280 degrees) at 13 MPH (11 knots; 5.7 m/s)
Visibility: 6 or more miles (10+ km)
Ceiling: 8400 feet AGL
Clouds: few clouds at 4900 feet AGL
scattered clouds at 6600 feet AGL
broken clouds at 8400 feet AGL
Weather: no significant weather observed at this time

METAR text: LFRL 221200Z AUTO 27010KT 9999 FEW024/// SCT039/// BKN074/// ///CB 07/05 Q1008 TEMPO 3000 SHRA
Conditions at: LFRL (LANVEOC/POULMIC(, FR) observed 1200 UTC 22 January 2019
Temperature: 7.0°C (45°F)
Dewpoint: 5.0°C (41°F) [RH = 87%]
Pressure (altimeter): 29.76 inches Hg (1008.0 mb)
Winds: from the W (270 degrees) at 12 MPH (10 knots; 5.1 m/s)
Visibility: 6 or more miles (10+ km)
Ceiling: 7400 feet AGL
Clouds: few clouds at 2400 feet AGL
scattered clouds at 3900 feet AGL
broken clouds at 7400 feet AGL
Weather: no significant weather observed at this time

METAR text: LFRL 221130Z AUTO 28014KT 9999 FEW013/// SCT033/// BKN054/// ///CB 08/04 Q1008 TEMPO 3000 SHRA
Conditions at: LFRL (LANVEOC/POULMIC(, FR) observed 1130 UTC 22 January 2019
Temperature: 8.0°C (46°F)
Dewpoint: 4.0°C (39°F) [RH = 76%]
Pressure (altimeter): 29.76 inches Hg (1008.0 mb)
Winds: from the W (280 degrees) at 16 MPH (14 knots; 7.2 m/s)
Visibility: 6 or more miles (10+ km)
Ceiling: 5400 feet AGL
Clouds: few clouds at 1300 feet AGL
scattered clouds at 3300 feet AGL
broken clouds at 5400 feet AGL
Weather: no significant weather observed at this time

METAR text: LFRL 221100Z AUTO 26007KT 240V300 9999 SCT033/// BKN052/// BKN064/// ///CB 08/05 Q1008 TEMPO 3000 SHRA
Conditions at: LFRL (LANVEOC/POULMIC(, FR) observed 1100 UTC 22 January 2019
Temperature: 8.0°C (46°F)
Dewpoint: 5.0°C (41°F) [RH = 81%]
Pressure (altimeter): 29.76 inches Hg (1008.0 mb)
Winds: from the W (260 degrees) at 8 MPH (7 knots; 3.6 m/s)
Visibility: 6 or more miles (10+ km)
Ceiling: 5200 feet AGL
Clouds: scattered clouds at 3300 feet AGL
broken clouds at 5200 feet AGL
broken clouds at 6400 feet AGL
Weather: no significant weather observed at this time

METAR text: LFRL 221030Z AUTO 27014KT 5000 -RA BR FEW013/// SCT026/// BKN033/// ///TCU 07/04 Q1009 TEMPO SHRA
Conditions at: LFRL (LANVEOC/POULMIC(, FR) observed 1030 UTC 22 January 2019
Temperature: 7.0°C (45°F)
Dewpoint: 4.0°C (39°F) [RH = 81%]
Pressure (altimeter): 29.79 inches Hg (1009.0 mb)
Winds: from the W (270 degrees) at 16 MPH (14 knots; 7.2 m/s)
Visibility: 3 miles ( 5 km)
Ceiling: 3300 feet AGL
Clouds: few clouds at 1300 feet AGL
scattered clouds at 2600 feet AGL
broken clouds at 3300 feet AGL
Weather: -RA BR  (light rain, mist)

METAR text: LFRL 221000Z AUTO 28008KT 9999 FEW011/// BKN039/// OVC084/// ///TCU 07/03 Q1009 TEMPO 3000 SHRA
Conditions at: LFRL (LANVEOC/POULMIC(, FR) observed 1000 UTC 22 January 2019
Temperature: 7.0°C (45°F)
Dewpoint: 3.0°C (37°F) [RH = 76%]
Pressure (altimeter): 29.79 inches Hg (1009.0 mb)
Winds: from the W (280 degrees) at 9 MPH (8 knots; 4.1 m/s)
Visibility: 6 or more miles (10+ km)
Ceiling: 3900 feet AGL
Clouds: few clouds at 1100 feet AGL
broken clouds at 3900 feet AGL
overcast cloud deck at 8400 feet AGL
Weather: no significant weather observed at this time

METAR text: LFRL 220930Z AUTO 29007KT 9999 SCT030 BKN038 BKN056 07/03 Q1009 TEMPO 3000 SHRA FEW020TCU BKN030
Conditions at: LFRL (LANVEOC/POULMIC(, FR) observed 0930 UTC 22 January 2019
Temperature: 7.0°C (45°F)
Dewpoint: 3.0°C (37°F) [RH = 76%]
Pressure (altimeter): 29.79 inches Hg (1009.0 mb)
Winds: from the WNW (290 degrees) at 8 MPH (7 knots; 3.6 m/s)
Visibility: 6 or more miles (10+ km)
Ceiling: 3800 feet AGL
Clouds: scattered clouds at 3000 feet AGL
broken clouds at 3800 feet AGL
broken clouds at 5600 feet AGL
Weather: no significant weather observed at this time

METAR text: LFRL 220900Z AUTO 30008KT 9999 FEW032 BKN190 BKN240 07/03 Q1009 TEMPO 3000 SHRA FEW020TCU BKN030
Conditions at: LFRL (LANVEOC/POULMIC(, FR) observed 0900 UTC 22 January 2019
Temperature: 7.0°C (45°F)
Dewpoint: 3.0°C (37°F) [RH = 76%]
Pressure (altimeter): 29.79 inches Hg (1009.0 mb)
Winds: from the WNW (300 degrees) at 9 MPH (8 knots; 4.1 m/s)
Visibility: 6 or more miles (10+ km)
Ceiling: 19000 feet AGL
Clouds: few clouds at 3200 feet AGL
broken clouds at 19000 feet AGL
broken clouds at 24000 feet AGL
Weather: no significant weather observed at this time

METAR text: LFRL 220830Z AUTO 30007KT 9999 FEW034 BKN090 BKN110 06/03 Q1010 TEMPO 3000 SHRA FEW020TCU BKN030
Conditions at: LFRL (LANVEOC/POULMIC(, FR) observed 0830 UTC 22 January 2019
Temperature: 6.0°C (43°F)
Dewpoint: 3.0°C (37°F) [RH = 81%]
Pressure (altimeter): 29.82 inches Hg (1010.0 mb)
Winds: from the WNW (300 degrees) at 8 MPH (7 knots; 3.6 m/s)
Visibility: 6 or more miles (10+ km)
Ceiling: 9000 feet AGL
Clouds: few clouds at 3400 feet AGL
broken clouds at 9000 feet AGL
broken clouds at 11000 feet AGL
Weather: no significant weather observed at this time

METAR text: LFRL 220800Z AUTO 29009KT CAVOK 06/02 Q1010 TEMPO 3000 SHRA FEW020TCU BKN030
Conditions at: LFRL (LANVEOC/POULMIC(, FR) observed 0800 UTC 22 January 2019
Temperature: 6.0°C (43°F)
Dewpoint: 2.0°C (36°F) [RH = 75%]
Pressure (altimeter): 29.82 inches Hg (1010.0 mb)
Winds: from the WNW (290 degrees) at 10 MPH (9 knots; 4.6 m/s)
Visibility: 6 or more miles (10+ km)
Ceiling: ceiling and visibility are OK
Clouds: unknown
Weather: no significant weather observed at this time

METAR text: LFRL 220730Z AUTO 30012KT 9999 ///TCU 06/02 Q1010 TEMPO 3000 SHRA
Conditions at: LFRL (LANVEOC/POULMIC(, FR) observed 0730 UTC 22 January 2019
Temperature: 6.0°C (43°F)
Dewpoint: 2.0°C (36°F) [RH = 75%]
Pressure (altimeter): 29.82 inches Hg (1010.0 mb)
Winds: from the WNW (300 degrees) at 14 MPH (12 knots; 6.2 m/s)
Visibility: 6 or more miles (10+ km)
Ceiling: unknown
Clouds: missing
Weather: no significant weather observed at this time

METAR text: LFRL 220700Z AUTO 32010KT 9999 ///CB 06/02 Q1010 TEMPO 3000 SHRA
Conditions at: LFRL (LANVEOC/POULMIC(, FR) observed 0700 UTC 22 January 2019
Temperature: 6.0°C (43°F)
Dewpoint: 2.0°C (36°F) [RH = 75%]
Pressure (altimeter): 29.82 inches Hg (1010.0 mb)
Winds: from the NW (320 degrees) at 12 MPH (10 knots; 5.1 m/s)
Visibility: 6 or more miles (10+ km)
Ceiling: unknown
Clouds: missing
Weather: no significant weather observed at this time

METAR text: LFRL 220630Z AUTO 31012KT 9999 FEW011/// SCT035/// BKN058/// ///TCU 06/02 Q1010 TEMPO 3000 SHRA
Conditions at: LFRL (LANVEOC/POULMIC(, FR) observed 0630 UTC 22 January 2019
Temperature: 6.0°C (43°F)
Dewpoint: 2.0°C (36°F) [RH = 75%]
Pressure (altimeter): 29.82 inches Hg (1010.0 mb)
Winds: from the NW (310 degrees) at 14 MPH (12 knots; 6.2 m/s)
Visibility: 6 or more miles (10+ km)
Ceiling: 5800 feet AGL
Clouds: few clouds at 1100 feet AGL
scattered clouds at 3500 feet AGL
broken clouds at 5800 feet AGL
Weather: no significant weather observed at this time

METAR text: LFRL 220600Z AUTO 31009KT 9999 FEW036/// ///TCU 06/02 Q1010 TEMPO 3000 SHRA
Conditions at: LFRL (LANVEOC/POULMIC(, FR) observed 0600 UTC 22 January 2019
Temperature: 6.0°C (43°F)
Dewpoint: 2.0°C (36°F) [RH = 75%]
Pressure (altimeter): 29.82 inches Hg (1010.0 mb)
Winds: from the NW (310 degrees) at 10 MPH (9 knots; 4.6 m/s)
Visibility: 6 or more miles (10+ km)
Ceiling: at least 12,000 feet AGL
Clouds: few clouds at 3600 feet AGL
Weather: no significant weather observed at this time

METAR text: LFRL 220530Z AUTO 30008KT 9999 FEW032 06/02 Q1010 TEMPO 3000 SHRA FEW020TCU BKN030
Conditions at: LFRL (LANVEOC/POULMIC(, FR) observed 0530 UTC 22 January 2019
Temperature: 6.0°C (43°F)
Dewpoint: 2.0°C (36°F) [RH = 75%]
Pressure (altimeter): 29.82 inches Hg (1010.0 mb)
Winds: from the WNW (300 degrees) at 9 MPH (8 knots; 4.1 m/s)
Visibility: 6 or more miles (10+ km)
Ceiling: at least 12,000 feet AGL
Clouds: few clouds at 3200 feet AGL
Weather: no significant weather observed at this time

METAR text: LFRL 220500Z AUTO 32012KT 290V350 9999 FEW037 06/02 Q1011
Conditions at: LFRL (LANVEOC/POULMIC(, FR) observed 0500 UTC 22 January 2019
Temperature: 6.0°C (43°F)
Dewpoint: 2.0°C (36°F) [RH = 75%]
Pressure (altimeter): 29.85 inches Hg (1011.0 mb)
Winds: from the NW (320 degrees) at 14 MPH (12 knots; 6.2 m/s)
Visibility: 6 or more miles (10+ km)
Ceiling: at least 12,000 feet AGL
Clouds: few clouds at 3700 feet AGL
Weather: no significant weather observed at this time

METAR text: LFRL 220430Z AUTO 32010KT 9999 FEW040/// SCT190/// ///CB 06/02 Q1011
Conditions at: LFRL (LANVEOC/POULMIC(, FR) observed 0430 UTC 22 January 2019
Temperature: 6.0°C (43°F)
Dewpoint: 2.0°C (36°F) [RH = 75%]
Pressure (altimeter): 29.85 inches Hg (1011.0 mb)
Winds: from the NW (320 degrees) at 12 MPH (10 knots; 5.1 m/s)
Visibility: 6 or more miles (10+ km)
Ceiling: at least 12,000 feet AGL
Clouds: few clouds at 4000 feet AGL
scattered clouds at 19000 feet AGL
Weather: no significant weather observed at this time

METAR text: LFRL 220400Z AUTO 32011KT 9999 FEW040/// BKN084/// BKN210/// ///TCU 07/03 Q1011
Conditions at: LFRL (LANVEOC/POULMIC(, FR) observed 0400 UTC 22 January 2019
Temperature: 7.0°C (45°F)
Dewpoint: 3.0°C (37°F) [RH = 76%]
Pressure (altimeter): 29.85 inches Hg (1011.0 mb)
Winds: from the NW (320 degrees) at 13 MPH (11 knots; 5.7 m/s)
Visibility: 6 or more miles (10+ km)
Ceiling: 8400 feet AGL
Clouds: few clouds at 4000 feet AGL
broken clouds at 8400 feet AGL
broken clouds at 21000 feet AGL
Weather: no significant weather observed at this time

METAR text: LFRL 220330Z AUTO 32012KT CAVOK 07/03 Q1011
Conditions at: LFRL (LANVEOC/POULMIC(, FR) observed 0330 UTC 22 January 2019
Temperature: 7.0°C (45°F)
Dewpoint: 3.0°C (37°F) [RH = 76%]
Pressure (altimeter): 29.85 inches Hg (1011.0 mb)
Winds: from the NW (320 degrees) at 14 MPH (12 knots; 6.2 m/s)
Visibility: 6 or more miles (10+ km)
Ceiling: ceiling and visibility are OK
Clouds: unknown
Weather: no significant weather observed at this time

METAR text: LFRL 220300Z AUTO 30006KT 9999 SCT040 BKN056 BKN072 06/04 Q1011
Conditions at: LFRL (LANVEOC/POULMIC(, FR) observed 0300 UTC 22 January 2019
Temperature: 6.0°C (43°F)
Dewpoint: 4.0°C (39°F) [RH = 87%]
Pressure (altimeter): 29.85 inches Hg (1011.0 mb)
Winds: from the WNW (300 degrees) at 7 MPH (6 knots; 3.1 m/s)
Visibility: 6 or more miles (10+ km)
Ceiling: 5600 feet AGL
Clouds: scattered clouds at 4000 feet AGL
broken clouds at 5600 feet AGL
broken clouds at 7200 feet AGL
Weather: no significant weather observed at this time

METAR text: LFRL 220230Z AUTO 32004KT 290V350 9999 FEW035 SCT044 OVC058 06/04 Q1012
Conditions at: LFRL (LANVEOC/POULMIC(, FR) observed 0230 UTC 22 January 2019
Temperature: 6.0°C (43°F)
Dewpoint: 4.0°C (39°F) [RH = 87%]
Pressure (altimeter): 29.88 inches Hg (1012.0 mb)
Winds: from the NW (320 degrees) at 5 MPH (4 knots; 2.1 m/s)
Visibility: 6 or more miles (10+ km)
Ceiling: 5800 feet AGL
Clouds: few clouds at 3500 feet AGL
scattered clouds at 4400 feet AGL
overcast cloud deck at 5800 feet AGL
Weather: no significant weather observed at this time

METAR text: LFRL 220200Z AUTO 34008KT 320V020 9999 FEW008/// SCT019/// BKN036/// ///TCU 06/05 Q1012
Conditions at: LFRL (LANVEOC/POULMIC(, FR) observed 0200 UTC 22 January 2019
Temperature: 6.0°C (43°F)
Dewpoint: 5.0°C (41°F) [RH = 93%]
Pressure (altimeter): 29.88 inches Hg (1012.0 mb)
Winds: from the NNW (340 degrees) at 9 MPH (8 knots; 4.1 m/s)
Visibility: 6 or more miles (10+ km)
Ceiling: 3600 feet AGL
Clouds: few clouds at 800 feet AGL
scattered clouds at 1900 feet AGL
broken clouds at 3600 feet AGL
Weather: no significant weather observed at this time

METAR text: LFRL 220130Z AUTO 31011KT 280V340 9999 FEW004/// SCT013/// OVC033/// ///CB 07/05 Q1012
Conditions at: LFRL (LANVEOC/POULMIC(, FR) observed 0130 UTC 22 January 2019
Temperature: 7.0°C (45°F)
Dewpoint: 5.0°C (41°F) [RH = 87%]
Pressure (altimeter): 29.88 inches Hg (1012.0 mb)
Winds: from the NW (310 degrees) at 13 MPH (11 knots; 5.7 m/s)
Visibility: 6 or more miles (10+ km)
Ceiling: 3300 feet AGL
Clouds: few clouds at 400 feet AGL
scattered clouds at 1300 feet AGL
overcast cloud deck at 3300 feet AGL
Weather: no significant weather observed at this time

Forecast for: LFRL (LANVEOC/POULMIC(, FR)
Text: TAF LFRL 231100Z 2312/2412 34013KT 9999 FEW030 BKN037 BKN050
Forecast period: 1200 UTC 23 January 2019 to 0200 UTC 24 January 2019
Forecast type: FROM: standard forecast or significant change
Winds: from the NNW (340 degrees) at 15 MPH (13 knots; 6.7 m/s)
Visibility: 6 or more miles 10+ km)
Ceiling: 3700 feet AGL
Clouds: few clouds at 3000 feet AGL
broken clouds at 3700 feet AGL
broken clouds at 5000 feet AGL
Weather: no significant weather forecast for this period
Text: TEMPO 2312/2318 34015G25KT
Forecast period: 1200 to 1800 UTC 23 January 2019
Forecast type: TEMPORARY: The following changes expected for less than half the time period
Winds: from the NNW (340 degrees) at 17 MPH (15 knots; 7.7 m/s)
gusting to 29 MPH (25 knots; 12.9 m/s)
Visibility: missing
Ceiling: unknown
Clouds: missing
Weather: no significant weather forecast for this period
Text: PROB30
Forecast period: 1200 to 1800 UTC 23 January 2019
Forecast type: TEMPORARY: The following changes expected for less than half the time period
Visibility: missing
Ceiling: 2500 feet AGL
Clouds: broken clouds at 2500 feet AGL
Weather: SHRA  (rain showers)
Text: TEMPO 2312/2318 SHRA BKN025TCU
Forecast period: 0200 to 1200 UTC 24 January 2019
Forecast type: BECOMING: Conditions expected to become as follows by 0400 UTC 24 January 2019
Winds: variable direction winds at 3 MPH (3 knots; 1.5 m/s)
Visibility: 2.49 miles (4.01 km)
Ceiling: 1500 feet AGL
Clouds: overcast cloud deck at 1500 feet AGL
Weather: -RA -DZ  (light rain, light drizzle)
Text: BECMG 2402/2404 VRB03KT 4000 -RADZ OVC015
Forecast period: 1000 to 1200 UTC 24 January 2019
Forecast type: TEMPORARY: The following changes expected for less than half the time period
Visibility: 1.55 miles (2.49 km)
Ceiling: 500 feet AGL
Clouds: overcast cloud deck at 500 feet AGL
Weather: -RA -DZ BR  (light rain, light drizzle, mist)